Time;durP1;ratioP1;P1;durP2;ratioP2;P2;SDS_P1;SDS_P2;PMS_P1;PMS_P2;Temp;Humidity;BMP_temperature;BMP_pressure;BME280_temperature;BME280_humidity;BME280_pressure;Samples;Min_cycle;Max_cycle;Signal;HPM_P1;HPM_P2
2024/03/06 00:00:52;;;;;;;15.57;13.07;;;4.80;99.90;;;;;;5160432;27;20818;-78
2024/03/06 00:03:20;;;;;;;14.80;13.40;;;4.80;99.90;;;;;;5160384;27;20510;-78
2024/03/06 00:05:49;;;;;;;15.83;13.33;;;4.80;99.90;;;;;;5160162;27;20644;-78
2024/03/06 00:08:18;;;;;;;14.03;12.27;;;4.80;99.90;;;;;;5160075;27;20465;-78
2024/03/06 00:10:47;;;;;;;13.70;11.87;;;4.90;99.90;;;;;;5178455;27;20973;-78
2024/03/06 00:13:17;;;;;;;13.23;11.83;;;4.80;99.90;;;;;;5159664;27;20488;-79
2024/03/06 00:15:45;;;;;;;14.30;12.00;;;4.80;99.90;;;;;;5159936;27;20441;-77
2024/03/06 00:18:14;;;;;;;14.90;13.53;;;4.80;99.90;;;;;;5178634;27;20455;-78
2024/03/06 00:20:44;;;;;;;15.50;14.00;;;4.80;99.90;;;;;;5178781;27;20434;-78
2024/03/06 00:23:12;;;;;;;14.47;12.97;;;4.80;99.90;;;;;;5160008;27;20437;-78
2024/03/06 00:25:41;;;;;;;16.43;14.73;;;4.80;99.90;;;;;;5159446;27;20476;-78
2024/03/06 00:28:09;;;;;;;15.20;13.70;;;4.80;99.90;;;;;;5159306;27;20500;-77
2024/03/06 00:30:39;;;;;;;14.80;13.17;;;4.90;99.90;;;;;;5159661;27;20438;-78
2024/03/06 00:33:07;;;;;;;15.13;12.70;;;4.80;99.90;;;;;;5159984;27;20468;-78
2024/03/06 00:35:36;;;;;;;14.30;12.90;;;4.80;99.90;;;;;;5159573;27;20472;-79
2024/03/06 00:38:06;;;;;;;15.43;12.93;;;4.80;99.90;;;;;;5159409;27;20457;-78
2024/03/06 00:40:34;;;;;;;13.20;11.80;;;4.90;99.90;;;;;;5159616;27;20443;-78
2024/03/06 00:43:03;;;;;;;13.90;12.47;;;4.80;99.90;;;;;;5159176;27;20441;-78
2024/03/06 00:45:31;;;;;;;13.30;12.00;;;4.80;99.90;;;;;;5178426;27;20833;-78
2024/03/06 00:48:01;;;;;;;14.17;12.73;;;4.80;99.90;;;;;;5159198;27;20537;-78
2024/03/06 00:50:30;;;;;;;14.53;13.13;;;4.80;99.90;;;;;;5159549;27;20451;-78
2024/03/06 00:52:58;;;;;;;16.30;14.07;;;4.80;99.90;;;;;;5178181;27;20456;-78
2024/03/06 00:55:27;;;;;;;14.50;12.90;;;4.80;99.90;;;;;;5159401;27;20452;-79
2024/03/06 00:57:55;;;;;;;12.70;11.43;;;4.90;99.90;;;;;;5159426;27;20493;-77
2024/03/06 01:00:24;;;;;;;18.20;14.47;;;4.80;99.90;;;;;;5159185;27;20441;-79
2024/03/06 01:02:52;;;;;;;17.13;14.53;;;4.80;99.90;;;;;;5158950;27;20437;-78
2024/03/06 01:05:22;;;;;;;18.60;13.93;;;4.80;99.90;;;;;;5159026;27;20438;-78
2024/03/06 01:07:51;;;;;;;18.50;13.90;;;4.90;99.90;;;;;;5178852;27;20417;-78
2024/03/06 01:10:19;;;;;;;15.80;14.30;;;4.80;99.90;;;;;;5159047;27;20441;-78
2024/03/06 01:12:48;;;;;;;17.00;15.50;;;4.90;99.90;;;;;;5178374;27;20192;-79
2024/03/06 01:15:16;;;;;;;15.03;13.53;;;4.90;99.90;;;;;;5159687;27;20437;-78
2024/03/06 01:17:44;;;;;;;14.70;13.20;;;4.90;99.90;;;;;;5159424;27;20453;-78
2024/03/06 01:20:13;;;;;;;15.97;13.43;;;4.90;99.90;;;;;;5159366;27;20442;-78
2024/03/06 01:22:43;;;;;;;15.03;13.43;;;4.90;99.90;;;;;;5159515;27;20444;-78
2024/03/06 01:25:11;;;;;;;16.73;13.17;;;4.90;99.90;;;;;;5159033;27;20444;-78
2024/03/06 01:27:40;;;;;;;16.60;13.77;;;4.90;99.90;;;;;;5177599;27;20440;-78
2024/03/06 01:30:09;;;;;;;15.17;13.07;;;4.80;99.90;;;;;;5159051;27;20444;-78
2024/03/06 01:32:38;;;;;;;13.27;11.83;;;4.80;99.90;;;;;;5158657;27;20442;-77
2024/03/06 01:35:07;;;;;;;14.03;12.50;;;4.80;99.90;;;;;;5159022;27;20463;-78
2024/03/06 01:37:36;;;;;;;13.90;12.50;;;4.80;99.90;;;;;;5158606;27;20817;-77
2024/03/06 01:40:08;;;;;;;15.70;14.10;;;4.80;99.90;;;;;;5158543;27;20496;-78
2024/03/06 01:42:37;;;;;;;14.30;12.80;;;4.80;99.90;;;;;;5158826;27;20437;-77
2024/03/06 01:45:07;;;;;;;16.00;14.40;;;4.80;99.90;;;;;;5158752;27;20445;-78
2024/03/06 01:47:35;;;;;;;16.50;14.47;;;4.80;99.90;;;;;;5158748;27;20460;-77
2024/03/06 01:50:08;;;;;;;15.37;13.17;;;4.80;99.90;;;;;;5158546;27;20456;-78
2024/03/06 01:52:39;;;;;;;15.03;13.43;;;4.80;99.90;;;;;;5158596;27;20835;-78
2024/03/06 01:55:11;;;;;;;15.87;13.33;;;4.80;99.90;;;;;;5158456;27;20465;-77
2024/03/06 01:57:41;;;;;;;14.43;12.70;;;4.80;99.90;;;;;;5159975;27;20547;-79
2024/03/06 02:00:13;;;;;;;15.40;13.80;;;4.80;99.90;;;;;;5159477;27;20475;-78
2024/03/06 02:02:43;;;;;;;17.07;15.37;;;4.80;99.90;;;;;;5159780;27;20479;-78
2024/03/06 02:05:12;;;;;;;15.53;14.00;;;4.80;99.90;;;;;;5159540;27;20451;-78
2024/03/06 02:07:42;;;;;;;15.73;14.03;;;4.80;99.90;;;;;;5159349;27;20444;-78
2024/03/06 02:10:13;;;;;;;16.20;13.33;;;4.80;99.90;;;;;;5178312;27;20536;-78
2024/03/06 02:12:42;;;;;;;14.50;12.97;;;4.80;99.90;;;;;;5159268;27;20585;-78
2024/03/06 02:15:12;;;;;;;16.43;13.10;;;4.80;99.90;;;;;;5159287;27;20529;-78
2024/03/06 02:17:42;;;;;;;16.30;14.20;;;4.80;99.90;;;;;;5159649;27;20445;-77
2024/03/06 02:20:14;;;;;;;16.57;13.53;;;4.80;99.90;;;;;;5161540;27;20496;-78
2024/03/06 02:22:44;;;;;;;15.17;13.37;;;4.80;99.90;;;;;;5181600;27;20418;-78
2024/03/06 02:25:14;;;;;;;16.00;13.43;;;4.80;99.90;;;;;;5162836;27;20455;-78
2024/03/06 02:27:43;;;;;;;19.07;14.00;;;4.80;99.90;;;;;;5162385;27;20467;-78
2024/03/06 02:30:12;;;;;;;17.53;15.33;;;4.80;99.90;;;;;;5162467;27;20444;-77
2024/03/06 02:32:41;;;;;;;14.60;12.80;;;4.80;99.90;;;;;;5181310;27;20432;-78
2024/03/06 02:35:09;;;;;;;16.27;14.33;;;4.80;99.90;;;;;;5162379;27;20543;-77
2024/03/06 02:37:38;;;;;;;15.17;13.00;;;4.80;99.90;;;;;;5181036;27;20428;-78
2024/03/06 02:40:11;;;;;;;15.43;13.93;;;4.70;99.90;;;;;;5162118;27;20441;-78
2024/03/06 02:42:40;;;;;;;14.10;12.60;;;4.80;99.90;;;;;;5162085;27;20458;-78
2024/03/06 02:45:12;;;;;;;16.33;13.70;;;4.80;99.90;;;;;;5181131;27;20417;-78
2024/03/06 02:47:40;;;;;;;18.77;14.93;;;4.80;99.90;;;;;;5162168;27;20444;-78
2024/03/06 02:50:12;;;;;;;17.10;14.47;;;4.70;99.90;;;;;;5162109;27;20451;-78
2024/03/06 02:52:40;;;;;;;16.17;14.23;;;4.70;99.90;;;;;;5161728;27;20447;-78
2024/03/06 02:55:13;;;;;;;15.67;14.07;;;4.70;99.90;;;;;;5161602;27;20559;-78
2024/03/06 02:57:41;;;;;;;14.43;12.93;;;4.70;99.90;;;;;;5180462;27;20413;-78
2024/03/06 03:00:13;;;;;;;16.00;14.43;;;4.70;99.90;;;;;;5160959;27;20444;-78
2024/03/06 03:02:46;;;;;;;16.13;14.27;;;4.70;99.90;;;;;;5180622;27;20959;-78
2024/03/06 03:05:14;;;;;;;15.33;13.73;;;4.80;99.90;;;;;;5161284;27;20500;-78
2024/03/06 03:07:45;;;;;;;14.73;13.17;;;4.80;99.90;;;;;;5161451;27;20421;-78
2024/03/06 03:10:18;;;;;;;14.63;13.13;;;4.80;99.90;;;;;;5161396;27;20488;-78
2024/03/06 03:12:48;;;;;;;17.80;16.10;;;4.80;99.90;;;;;;5161339;27;20431;-78
2024/03/06 03:15:17;;;;;;;15.30;13.63;;;4.80;99.90;;;;;;5161281;27;20468;-78
2024/03/06 03:17:45;;;;;;;16.30;14.20;;;4.80;99.90;;;;;;5160876;27;20906;-78
2024/03/06 03:20:16;;;;;;;18.40;13.73;;;4.80;99.90;;;;;;5161080;27;20977;-78
2024/03/06 03:22:45;;;;;;;17.83;14.80;;;4.80;99.90;;;;;;5179983;27;20448;-77
2024/03/06 03:25:15;;;;;;;16.70;14.80;;;4.80;99.90;;;;;;5161034;27;20444;-77
2024/03/06 03:27:47;;;;;;;16.80;15.00;;;4.80;99.90;;;;;;5162284;27;20459;-79
2024/03/06 03:30:16;;;;;;;16.23;14.53;;;4.80;99.90;;;;;;5161432;27;20544;-79
2024/03/06 03:32:47;;;;;;;16.60;14.07;;;4.80;99.90;;;;;;5161785;27;20441;-79
2024/03/06 03:35:15;;;;;;;16.33;14.63;;;4.80;99.90;;;;;;5161066;27;20513;-78
2024/03/06 03:37:44;;;;;;;17.03;13.50;;;4.80;99.90;;;;;;5161362;27;20441;-78
2024/03/06 03:40:16;;;;;;;16.27;14.77;;;4.80;99.90;;;;;;5161275;27;20899;-79
2024/03/06 03:42:49;;;;;;;17.73;15.93;;;4.80;99.90;;;;;;5179823;27;20924;-77
2024/03/06 03:45:18;;;;;;;17.57;15.70;;;4.80;99.90;;;;;;5160866;27;20437;-78
2024/03/06 03:47:46;;;;;;;16.83;15.13;;;4.80;99.90;;;;;;5160468;27;20952;-77
2024/03/06 03:50:17;;;;;;;15.90;14.27;;;4.80;99.90;;;;;;5159639;27;20436;-77
2024/03/06 03:52:46;;;;;;;17.60;15.30;;;4.80;99.90;;;;;;5159756;27;20541;-76
2024/03/06 03:55:14;;;;;;;16.63;14.77;;;4.70;99.90;;;;;;5159413;27;20461;-76
2024/03/06 03:57:50;;;;;;;16.30;14.60;;;4.80;99.90;;;;;;5159466;27;20840;-77
2024/03/06 04:00:20;;;;;;;17.33;15.47;;;4.70;99.90;;;;;;5160197;27;20784;-78
2024/03/06 04:02:49;;;;;;;18.27;14.90;;;4.80;99.90;;;;;;5179421;27;20428;-78
2024/03/06 04:05:18;;;;;;;16.73;14.00;;;4.70;99.90;;;;;;5160123;27;20441;-77
2024/03/06 04:07:50;;;;;;;16.37;13.60;;;4.70;99.90;;;;;;5160224;27;20429;-77
2024/03/06 04:10:19;;;;;;;15.17;13.70;;;4.80;99.90;;;;;;5178799;27;20471;-77
2024/03/06 04:12:53;;;;;;;17.37;15.63;;;4.70;99.90;;;;;;5159781;27;20970;-78
2024/03/06 04:15:25;;;;;;;16.03;14.33;;;4.80;99.90;;;;;;5142642;27;20492;-78
2024/03/06 04:17:53;;;;;;;16.33;14.00;;;4.80;99.90;;;;;;5160146;27;20509;-79
2024/03/06 04:20:22;;;;;;;17.80;16.10;;;4.80;99.90;;;;;;5159499;27;20437;-78
2024/03/06 04:22:53;;;;;;;17.20;15.40;;;4.80;99.90;;;;;;5178132;27;20513;-77
2024/03/06 04:25:21;;;;;;;17.30;15.50;;;4.80;99.90;;;;;;5159498;27;20536;-77
2024/03/06 04:27:53;;;;;;;16.57;14.87;;;4.80;99.90;;;;;;5159335;27;20484;-78
2024/03/06 04:30:22;;;;;;;16.90;15.10;;;4.80;99.90;;;;;;5159603;27;20444;-78
2024/03/06 04:32:50;;;;;;;16.57;14.80;;;4.80;99.90;;;;;;5159565;27;20437;-78
2024/03/06 04:35:19;;;;;;;17.00;15.33;;;4.80;99.90;;;;;;5159142;27;20463;-78
2024/03/06 04:37:48;;;;;;;19.73;15.30;;;4.70;99.90;;;;;;5159607;27;20449;-77
2024/03/06 04:40:22;;;;;;;19.97;15.57;;;4.70;99.90;;;;;;5159371;27;20448;-78
2024/03/06 04:42:55;;;;;;;16.00;14.30;;;4.70;99.90;;;;;;5159181;27;20531;-78
2024/03/06 04:45:26;;;;;;;15.50;13.73;;;4.70;99.90;;;;;;5159225;27;20435;-77
2024/03/06 04:47:55;;;;;;;18.17;16.47;;;4.70;99.90;;;;;;5159314;27;20449;-78
2024/03/06 04:50:23;;;;;;;20.30;17.10;;;4.70;99.90;;;;;;5159327;27;20959;-78
2024/03/06 04:52:55;;;;;;;16.57;14.07;;;4.60;99.90;;;;;;5159472;27;20444;-77
2024/03/06 04:55:25;;;;;;;17.73;15.93;;;4.60;99.90;;;;;;5159208;27;20500;-77
2024/03/06 04:57:56;;;;;;;17.33;14.57;;;4.60;99.90;;;;;;5159272;27;20448;-77
2024/03/06 05:00:24;;;;;;;18.43;16.53;;;4.60;99.90;;;;;;5159205;27;20528;-78
2024/03/06 05:02:53;;;;;;;17.47;15.77;;;4.50;99.90;;;;;;5159241;27;20489;-77
2024/03/06 05:05:39;;;;;;;16.63;14.63;;;4.50;99.90;;;;;;5177483;27;20401;-78
2024/03/06 05:08:26;;;;;;;19.70;16.83;;;4.50;99.90;;;;;;5158973;27;20806;-78
2024/03/06 05:11:13;;;;;;;17.83;13.57;;;4.50;99.90;;;;;;5178479;27;20412;-78
2024/03/06 05:14:01;;;;;;;15.97;14.27;;;4.50;99.90;;;;;;5159639;27;20438;-78
2024/03/06 05:16:47;;;;;;;15.63;13.80;;;4.50;99.90;;;;;;5159727;27;20469;-78
2024/03/06 05:19:34;;;;;;;18.40;15.73;;;4.50;99.90;;;;;;5178011;27;20448;-78
2024/03/06 05:22:21;;;;;;;17.33;15.10;;;4.40;99.90;;;;;;5159515;27;20475;-78
2024/03/06 05:25:07;;;;;;;17.00;15.30;;;4.40;99.90;;;;;;5159107;27;20421;-78
2024/03/06 05:27:54;;;;;;;16.60;14.33;;;4.40;99.90;;;;;;5159207;27;20452;-78
2024/03/06 05:30:41;;;;;;;19.17;15.20;;;4.40;99.90;;;;;;5178007;27;20409;-78
2024/03/06 05:33:36;;;;;;;13.73;11.60;;;4.40;99.90;;;;;;5159328;27;20447;-78
2024/03/06 05:36:22;;;;;;;18.37;14.20;;;4.40;99.90;;;;;;5159193;27;20459;-78
2024/03/06 05:39:12;;;;;;;18.63;14.90;;;4.40;99.90;;;;;;5159372;27;20449;-78
2024/03/06 05:42:03;;;;;;;18.57;14.80;;;4.30;99.90;;;;;;5159161;27;20458;-78
2024/03/06 05:44:50;;;;;;;17.30;15.50;;;4.30;99.90;;;;;;5159115;27;20432;-79
2024/03/06 05:47:41;;;;;;;17.90;15.27;;;4.30;99.90;;;;;;5178868;27;20429;-78
2024/03/06 05:50:27;;;;;;;15.60;14.10;;;4.30;99.90;;;;;;5160128;27;20433;-78
2024/03/06 05:53:13;;;;;;;18.83;14.57;;;4.20;99.90;;;;;;5159278;27;20440;-78
2024/03/06 05:55:59;;;;;;;16.90;15.20;;;4.20;99.90;;;;;;5163499;27;20460;-79
2024/03/06 05:58:46;;;;;;;15.60;13.60;;;4.20;99.90;;;;;;5163321;27;20452;-78
2024/03/06 06:01:19;;;;;;;18.50;15.40;;;4.20;99.90;;;;;;5162733;27;20448;-78
2024/03/06 06:03:51;;;;;;;17.50;15.57;;;4.20;99.90;;;;;;5163054;27;20463;-77
2024/03/06 06:06:20;;;;;;;17.93;14.90;;;4.20;99.90;;;;;;5162286;27;20431;-78
2024/03/06 06:08:48;;;;;;;15.60;14.00;;;4.20;99.90;;;;;;5181450;27;20501;-78
2024/03/06 06:11:20;;;;;;;17.47;14.67;;;4.20;99.90;;;;;;5161600;27;20436;-79
2024/03/06 06:13:49;;;;;;;19.70;14.97;;;4.20;99.90;;;;;;5161664;27;20448;-77
2024/03/06 06:16:20;;;;;;;18.73;14.97;;;4.20;99.90;;;;;;5161803;27;20461;-77
2024/03/06 06:18:50;;;;;;;17.93;15.63;;;4.20;99.90;;;;;;5161343;27;20505;-78
2024/03/06 06:21:18;;;;;;;19.60;15.17;;;4.20;99.90;;;;;;5180029;27;20961;-77
2024/03/06 06:23:47;;;;;;;16.30;14.10;;;4.20;99.90;;;;;;5161633;27;20937;-77
2024/03/06 06:26:18;;;;;;;17.80;14.97;;;4.20;99.90;;;;;;5161210;27;20440;-78
2024/03/06 06:28:48;;;;;;;19.33;14.30;;;4.20;99.90;;;;;;5162150;27;20513;-78
2024/03/06 06:31:16;;;;;;;18.08;15.70;;;4.20;99.90;;;;;;5180664;27;20428;-77
2024/03/06 06:33:47;;;;;;;18.00;16.10;;;4.20;99.90;;;;;;5161805;27;20196;-77
2024/03/06 06:36:17;;;;;;;17.07;15.00;;;4.20;99.90;;;;;;5161738;27;20467;-78
2024/03/06 06:38:50;;;;;;;17.73;15.00;;;4.20;99.90;;;;;;5161695;27;20483;-77
2024/03/06 06:41:19;;;;;;;23.47;15.27;;;4.20;99.90;;;;;;5180349;27;20437;-78
2024/03/06 06:43:51;;;;;;;19.00;15.83;;;4.30;99.90;;;;;;5161796;27;20468;-78
2024/03/06 06:46:21;;;;;;;17.50;15.70;;;4.20;99.90;;;;;;5161541;27;20432;-78
2024/03/06 06:48:50;;;;;;;19.93;14.57;;;4.20;99.90;;;;;;5180181;27;20484;-77
2024/03/06 06:51:23;;;;;;;16.77;15.03;;;4.30;99.90;;;;;;5180373;27;20464;-78
2024/03/06 06:53:51;;;;;;;17.33;15.60;;;4.30;99.90;;;;;;5161472;27;20433;-78
2024/03/06 06:56:25;;;;;;;19.27;16.37;;;4.30;99.90;;;;;;5162156;27;20458;-78
2024/03/06 06:58:56;;;;;;;17.77;14.90;;;4.30;99.90;;;;;;5161571;27;20464;-78
2024/03/06 07:01:24;;;;;;;22.33;15.33;;;4.30;99.90;;;;;;5161369;27;20444;-78
2024/03/06 07:03:57;;;;;;;17.00;15.03;;;4.30;99.90;;;;;;5161169;27;20894;-77
2024/03/06 07:06:27;;;;;;;18.27;15.27;;;4.30;99.90;;;;;;5161097;27;20465;-78
2024/03/06 07:08:58;;;;;;;17.77;15.07;;;4.30;99.90;;;;;;5160930;27;20484;-78
2024/03/06 07:11:27;;;;;;;17.67;15.83;;;4.30;99.90;;;;;;5160377;27;20445;-76
2024/03/06 07:13:55;;;;;;;19.60;16.43;;;4.30;99.90;;;;;;5160122;27;20447;-78
2024/03/06 07:16:25;;;;;;;18.23;15.80;;;4.30;99.90;;;;;;5160547;27;20833;-79
2024/03/06 07:18:56;;;;;;;19.67;17.10;;;4.30;99.90;;;;;;5160176;27;20469;-77
2024/03/06 07:21:25;;;;;;;21.27;16.37;;;4.30;99.90;;;;;;5178981;27;20536;-77
2024/03/06 07:23:54;;;;;;;17.97;16.17;;;4.30;99.90;;;;;;5160136;27;20806;-76
2024/03/06 07:26:26;;;;;;;18.13;15.90;;;4.40;99.90;;;;;;5159961;27;20459;-79
2024/03/06 07:28:54;;;;;;;18.57;16.47;;;4.40;99.90;;;;;;5159630;27;20504;-77
2024/03/06 07:31:23;;;;;;;16.43;14.73;;;4.40;99.90;;;;;;5159658;27;20996;-77
2024/03/06 07:33:53;;;;;;;18.67;15.40;;;4.40;99.90;;;;;;5159891;27;20778;-77
2024/03/06 07:36:22;;;;;;;20.57;18.37;;;4.30;99.90;;;;;;5159468;27;20464;-77
2024/03/06 07:38:51;;;;;;;21.20;18.70;;;4.40;99.90;;;;;;5159576;27;20869;-77
2024/03/06 07:41:21;;;;;;;17.53;15.53;;;4.40;99.90;;;;;;5160063;27;20475;-76
2024/03/06 07:43:49;;;;;;;19.90;16.23;;;4.40;99.90;;;;;;5159374;27;20436;-78
2024/03/06 07:46:21;;;;;;;20.13;16.60;;;4.40;99.90;;;;;;5159784;27;20437;-76
2024/03/06 07:48:51;;;;;;;16.57;14.87;;;4.40;99.90;;;;;;5160336;27;20456;-78
2024/03/06 07:51:22;;;;;;;18.57;16.63;;;4.40;99.90;;;;;;5160286;27;20441;-79
2024/03/06 07:53:51;;;;;;;17.40;15.53;;;4.50;99.90;;;;;;5160060;27;20445;-78
2024/03/06 07:56:21;;;;;;;16.70;14.40;;;4.50;99.90;;;;;;5160285;27;20879;-79
2024/03/06 07:58:50;;;;;;;19.53;17.13;;;4.50;99.90;;;;;;5159784;27;20473;-79
2024/03/06 08:01:19;;;;;;;18.00;16.20;;;4.50;99.90;;;;;;5160003;27;20946;-78
2024/03/06 08:03:47;;;;;;;18.27;16.30;;;4.50;99.90;;;;;;5159721;27;20459;-79
2024/03/06 08:06:19;;;;;;;16.53;14.77;;;4.50;99.90;;;;;;5160520;27;20453;-79
2024/03/06 08:08:48;;;;;;;18.40;15.60;;;4.50;99.90;;;;;;5164522;27;20468;-78
2024/03/06 08:11:17;;;;;;;16.97;14.80;;;4.50;99.90;;;;;;5162875;27;20454;-78
2024/03/06 08:13:50;;;;;;;20.17;17.07;;;4.50;99.90;;;;;;5160036;27;20528;-79
2024/03/06 08:16:18;;;;;;;17.80;15.67;;;4.50;99.90;;;;;;5159885;27;20433;-78
2024/03/06 08:18:46;;;;;;;21.67;17.40;;;4.50;99.90;;;;;;5159757;27;20468;-78
2024/03/06 08:21:15;;;;;;;17.70;15.90;;;4.50;99.90;;;;;;5159742;27;20448;-78
2024/03/06 08:23:47;;;;;;;19.63;16.70;;;4.50;99.90;;;;;;5160228;27;20452;-78
2024/03/06 08:26:16;;;;;;;20.93;18.67;;;4.60;99.90;;;;;;5160305;27;20440;-78
2024/03/06 08:28:48;;;;;;;17.03;15.23;;;4.60;99.90;;;;;;5160126;27;21016;-78
2024/03/06 08:31:17;;;;;;;18.40;16.43;;;4.60;99.90;;;;;;5160604;27;20441;-78
2024/03/06 08:33:45;;;;;;;18.57;16.10;;;4.60;99.90;;;;;;5159934;27;20444;-79
2024/03/06 08:36:16;;;;;;;17.87;15.97;;;4.70;99.90;;;;;;5160045;27;20796;-78
2024/03/06 08:38:45;;;;;;;18.47;16.67;;;4.70;99.90;;;;;;5159825;27;20457;-78
2024/03/06 08:41:13;;;;;;;19.97;17.63;;;4.70;99.90;;;;;;5159714;27;20449;-78
2024/03/06 08:43:42;;;;;;;19.07;17.10;;;4.70;99.90;;;;;;5159953;27;20479;-78
2024/03/06 08:46:14;;;;;;;19.87;16.80;;;4.80;99.90;;;;;;5159984;27;20457;-78
2024/03/06 08:48:42;;;;;;;18.00;15.73;;;4.80;99.90;;;;;;5159734;27;20464;-77
2024/03/06 08:51:11;;;;;;;18.40;16.60;;;4.80;99.90;;;;;;5159720;27;20440;-78
2024/03/06 08:53:42;;;;;;;18.13;16.23;;;4.80;99.90;;;;;;5159484;27;20833;-78
2024/03/06 08:56:10;;;;;;;18.90;17.00;;;4.80;99.90;;;;;;5159454;27;20437;-77
2024/03/06 08:58:40;;;;;;;22.83;17.63;;;4.90;99.90;;;;;;5159651;27;20519;-78
2024/03/06 09:01:10;;;;;;;20.00;17.10;;;4.90;99.90;;;;;;5178608;27;20431;-78
2024/03/06 09:03:40;;;;;;;20.70;18.60;;;4.90;99.90;;;;;;5160162;27;20444;-78
2024/03/06 09:06:12;;;;;;;17.93;16.10;;;4.90;99.90;;;;;;5159871;27;20940;-78
2024/03/06 09:08:41;;;;;;;18.03;16.33;;;4.90;99.90;;;;;;5159158;27;20456;-78
2024/03/06 09:11:12;;;;;;;18.87;16.87;;;5.00;99.90;;;;;;5159216;27;20978;-78
2024/03/06 09:13:41;;;;;;;20.07;17.93;;;5.10;99.90;;;;;;5159536;27;20446;-79
2024/03/06 09:16:14;;;;;;;20.77;16.20;;;5.10;99.90;;;;;;5159170;27;20428;-78
2024/03/06 09:18:45;;;;;;;18.83;17.03;;;5.10;99.90;;;;;;5158983;27;20479;-78
2024/03/06 09:21:14;;;;;;;19.70;17.70;;;5.20;99.90;;;;;;5159200;27;20427;-78
2024/03/06 09:23:42;;;;;;;18.80;16.60;;;5.20;99.90;;;;;;5159236;27;20445;-79
2024/03/06 09:26:13;;;;;;;18.30;16.50;;;5.20;99.90;;;;;;5159378;27;20514;-79
2024/03/06 09:28:42;;;;;;;19.03;17.10;;;5.30;99.90;;;;;;5159460;27;20816;-78
2024/03/06 09:31:12;;;;;;;19.20;17.30;;;5.30;99.90;;;;;;5163591;27;20432;-78
2024/03/06 09:33:49;;;;;;;19.40;16.07;;;5.40;99.90;;;;;;5163288;27;20435;-78
2024/03/06 09:36:17;;;;;;;17.40;15.63;;;5.50;99.90;;;;;;5163432;27;20482;-78
2024/03/06 09:38:46;;;;;;;19.03;17.03;;;5.50;99.90;;;;;;5162806;27;20476;-78
2024/03/06 09:41:17;;;;;;;21.13;18.23;;;5.60;99.90;;;;;;5181666;27;20432;-79
2024/03/06 09:43:46;;;;;;;25.90;19.30;;;5.60;99.90;;;;;;5182212;27;20939;-78
2024/03/06 09:46:15;;;;;;;20.03;18.00;;;5.70;99.90;;;;;;5162656;27;20476;-78
2024/03/06 09:48:54;;;;;;;19.80;17.80;;;5.70;99.90;;;;;;5162590;27;20473;-77
2024/03/06 09:51:27;;;;;;;19.93;17.93;;;5.80;99.90;;;;;;5161912;27;20452;-76
2024/03/06 09:53:55;;;;;;;19.60;17.70;;;5.80;99.90;;;;;;5161687;27;20438;-78
2024/03/06 09:56:24;;;;;;;19.87;17.97;;;5.90;99.90;;;;;;5162053;27;20466;-78
2024/03/06 09:58:56;;;;;;;20.37;18.30;;;5.90;99.90;;;;;;5180568;27;20475;-77
2024/03/06 10:01:26;;;;;;;20.30;18.27;;;6.00;99.90;;;;;;5161932;27;20437;-78
2024/03/06 10:04:04;;;;;;;19.80;18.00;;;6.10;99.90;;;;;;5162309;27;20445;-78
2024/03/06 10:06:33;;;;;;;20.07;18.10;;;6.20;99.90;;;;;;5162350;27;20436;-78
2024/03/06 10:09:08;;;;;;;19.53;17.73;;;6.20;99.90;;;;;;5162193;27;20471;-78
2024/03/06 10:11:42;;;;;;;21.70;19.60;;;6.20;99.90;;;;;;5161616;27;20468;-77
2024/03/06 10:14:11;;;;;;;20.50;18.60;;;6.30;99.90;;;;;;5161638;27;20931;-78
2024/03/06 10:16:55;;;;;;;23.07;20.70;;;6.40;99.90;;;;;;5162336;27;20441;-79
2024/03/06 10:19:30;;;;;;;20.53;18.53;;;6.50;99.90;;;;;;5162733;27;20468;-79
2024/03/06 10:21:58;;;;;;;20.77;18.67;;;6.50;99.90;;;;;;5161787;27;20460;-77
2024/03/06 10:24:30;;;;;;;23.50;21.20;;;6.60;99.90;;;;;;5161683;27;20495;-77
2024/03/06 10:27:00;;;;;;;21.73;19.30;;;6.70;99.90;;;;;;5161251;27;20447;-77
2024/03/06 10:29:31;;;;;;;20.40;18.57;;;6.70;99.90;;;;;;5165550;27;21036;-78
2024/03/06 10:32:00;;;;;;;20.90;18.83;;;6.80;99.90;;;;;;5164394;27;20818;-78
2024/03/06 10:34:33;;;;;;;21.70;19.70;;;6.80;99.90;;;;;;5181704;27;20466;-79
2024/03/06 10:37:05;;;;;;;22.23;20.30;;;6.90;99.90;;;;;;5161701;27;20434;-79
2024/03/06 10:39:36;;;;;;;21.60;19.70;;;7.00;99.90;;;;;;5161265;27;20474;-79
2024/03/06 10:42:08;;;;;;;20.83;19.03;;;7.10;99.90;;;;;;5180443;27;20798;-78
2024/03/06 10:44:41;;;;;;;21.70;19.70;;;7.20;99.90;;;;;;5161119;27;20440;-78
2024/03/06 10:47:11;;;;;;;23.07;20.80;;;7.20;99.90;;;;;;5161346;27;20888;-78
2024/03/06 10:49:43;;;;;;;22.17;20.07;;;7.30;99.90;;;;;;5180321;27;20453;-79
2024/03/06 10:52:16;;;;;;;22.00;19.90;;;7.30;99.90;;;;;;5161286;27;20438;-79
2024/03/06 10:54:49;;;;;;;22.33;20.30;;;7.30;99.90;;;;;;5161199;27;20435;-79
2024/03/06 10:57:19;;;;;;;20.90;18.93;;;7.40;99.90;;;;;;5161410;27;20451;-79
2024/03/06 10:59:49;;;;;;;26.53;23.93;;;7.40;99.90;;;;;;5160994;27;20554;-80
2024/03/06 11:02:18;;;;;;;25.60;23.00;;;7.50;99.90;;;;;;5161034;27;20543;-78
2024/03/06 11:04:49;;;;;;;22.57;20.47;;;7.50;99.90;;;;;;5161274;27;20455;-78
2024/03/06 11:07:18;;;;;;;21.70;19.60;;;7.60;99.90;;;;;;5160932;27;20444;-79
2024/03/06 11:09:48;;;;;;;23.20;20.87;;;7.60;99.90;;;;;;5160928;27;20515;-78
2024/03/06 11:12:36;;;;;;;23.10;20.80;;;7.60;99.90;;;;;;5160879;27;20858;-79
2024/03/06 11:15:11;;;;;;;21.93;19.87;;;7.70;99.90;;;;;;5179856;27;20480;-79
2024/03/06 11:17:40;;;;;;;30.90;27.80;;;7.70;99.90;;;;;;5160595;27;20453;-79
2024/03/06 11:20:18;;;;;;;23.03;21.00;;;7.80;99.90;;;;;;5160581;27;20886;-78
2024/03/06 11:23:10;;;;;;;26.07;23.27;;;7.80;99.90;;;;;;5179558;27;20504;-79
2024/03/06 11:26:15;;;;;;;22.37;20.27;;;7.90;99.90;;;;;;5160091;27;20943;-78
2024/03/06 11:28:50;;;;;;;22.43;20.30;;;7.90;99.90;;;;;;5094082;28;20499;-77
2024/03/06 11:31:24;;;;;;;23.60;20.70;;;7.90;99.90;;;;;;5077465;28;20439;-77
2024/03/06 11:33:56;;;;;;;25.27;22.80;;;8.00;99.90;;;;;;5124346;27;20440;-77
2024/03/06 11:36:30;;;;;;;24.93;22.50;;;8.00;99.90;;;;;;5161872;27;20921;-78
2024/03/06 11:39:00;;;;;;;23.97;21.80;;;8.00;99.90;;;;;;5178762;27;20548;-77
2024/03/06 11:41:30;;;;;;;21.90;19.90;;;8.10;99.90;;;;;;5178544;27;20417;-78
2024/03/06 11:44:01;;;;;;;24.90;22.33;;;8.10;99.90;;;;;;5160784;27;20495;-79
2024/03/06 11:46:46;;;;;;;23.50;21.10;;;8.20;99.90;;;;;;5160784;27;20454;-80
2024/03/06 11:49:20;;;;;;;23.63;21.47;;;8.20;99.90;;;;;;5161024;27;20472;-80
2024/03/06 11:51:54;;;;;;;23.57;21.27;;;8.30;99.90;;;;;;5160153;27;20436;-79
2024/03/06 11:54:24;;;;;;;22.33;20.13;;;8.30;99.90;;;;;;5160780;27;20807;-80
2024/03/06 11:56:59;;;;;;;24.20;21.80;;;8.30;99.90;;;;;;5161092;27;20460;-80
2024/03/06 11:59:28;;;;;;;24.97;22.70;;;8.30;99.90;;;;;;5179751;27;20467;-80
2024/03/06 12:02:01;;;;;;;24.50;22.20;;;8.30;99.90;;;;;;5161051;27;20444;-79
2024/03/06 12:04:33;;;;;;;32.07;29.17;;;8.30;99.90;;;;;;5160333;27;20492;-78
2024/03/06 12:07:05;;;;;;;24.60;22.00;;;8.30;99.90;;;;;;5160558;27;20483;-80
2024/03/06 12:09:36;;;;;;;25.30;22.90;;;8.30;99.90;;;;;;5160030;27;20496;-80
2024/03/06 12:12:10;;;;;;;24.77;22.67;;;8.30;99.90;;;;;;5160361;27;20483;-79
2024/03/06 12:14:43;;;;;;;24.90;22.53;;;8.40;99.90;;;;;;5160341;27;20494;-79
2024/03/06 12:17:15;;;;;;;25.70;23.50;;;8.40;99.90;;;;;;5160017;27;20462;-79
2024/03/06 12:19:45;;;;;;;26.37;23.67;;;8.40;99.90;;;;;;5160053;27;20468;-80
2024/03/06 12:22:16;;;;;;;23.40;21.30;;;8.40;99.90;;;;;;5159924;27;20493;-80
2024/03/06 12:24:47;;;;;;;25.77;23.57;;;8.50;99.90;;;;;;5159397;27;20443;-78
2024/03/06 12:27:23;;;;;;;24.23;21.90;;;8.50;99.90;;;;;;5159534;27;20444;-78
2024/03/06 12:29:54;;;;;;;25.58;23.17;;;8.60;99.90;;;;;;5159289;27;20791;-80
2024/03/06 12:32:29;;;;;;;25.57;22.80;;;8.60;99.90;;;;;;5159726;27;20184;-79
2024/03/06 12:34:59;;;;;;;24.97;22.63;;;8.70;99.90;;;;;;5158935;27;20436;-78
2024/03/06 12:37:36;;;;;;;24.43;22.23;;;8.80;99.90;;;;;;5159397;27;20535;-80
2024/03/06 12:40:05;;;;;;;24.53;22.33;;;8.80;99.90;;;;;;5159320;27;20459;-79
2024/03/06 12:42:37;;;;;;;24.63;22.23;;;8.90;99.90;;;;;;5178976;27;20405;-78
2024/03/06 12:45:07;;;;;;;23.50;21.20;;;8.90;99.90;;;;;;5159188;27;20448;-79
2024/03/06 12:47:37;;;;;;;24.27;22.07;;;8.90;99.90;;;;;;5159340;27;20477;-79
2024/03/06 12:50:07;;;;;;;24.80;22.37;;;9.00;99.90;;;;;;5200373;27;20433;-79
2024/03/06 12:52:44;;;;;;;23.90;21.40;;;9.00;99.90;;;;;;5166050;27;20826;-80
2024/03/06 12:55:13;;;;;;;23.23;21.23;;;9.00;99.90;;;;;;5178698;27;20919;-79
2024/03/06 12:57:43;;;;;;;22.97;20.67;;;9.00;99.90;;;;;;5159803;27;20432;-79